Time;durP1;ratioP1;P1;durP2;ratioP2;P2;SDS_P1;SDS_P2;PMS_P1;PMS_P2;Temp;Humidity;BMP_temperature;BMP_pressure;BME280_temperature;BME280_humidity;BME280_pressure;Samples;Min_cycle;Max_cycle;Signal;HPM_P1;HPM_P2
2022/12/02 00:00:49;;;;;;;51.90;17.90;;;6.60;99.90;;;;;;5041514;28;21271;-60
2022/12/02 00:03:21;;;;;;;70.93;20.63;;;6.60;99.90;;;;;;5019566;28;20500;-60
2022/12/02 00:05:49;;;;;;;61.70;22.23;;;6.60;99.90;;;;;;5014768;28;20473;-61
2022/12/02 00:08:19;;;;;;;53.97;19.97;;;6.60;99.90;;;;;;5019824;28;20830;-60
2022/12/02 00:10:46;;;;;;;59.47;17.03;;;;;;;;;;5030494;28;20511;-61
2022/12/02 00:13:20;;;;;;;69.77;22.13;;;6.60;99.90;;;;;;5021189;28;20768;-61
2022/12/02 00:15:50;;;;;;;58.10;19.10;;;;;;;;;;5015756;28;20469;-60
2022/12/02 00:18:18;;;;;;;80.83;23.00;;;6.60;99.90;;;;;;5015320;28;20558;-60
2022/12/02 00:20:45;;;;;;;57.23;18.80;;;6.70;99.90;;;;;;5014619;28;20472;-60
2022/12/02 00:23:11;;;;;;;64.50;18.83;;;6.70;99.90;;;;;;5015806;28;21244;-60
2022/12/02 00:25:39;;;;;;;66.90;19.43;;;;;;;;;;5023925;28;21093;-60
2022/12/02 00:28:05;;;;;;;63.23;17.60;;;6.60;99.90;;;;;;5039291;28;20473;-60
2022/12/02 00:30:32;;;;;;;52.83;19.20;;;6.60;99.90;;;;;;5015337;28;20580;-59
2022/12/02 00:32:59;;;;;;;45.33;17.50;;;6.70;99.90;;;;;;5018437;28;20487;-59
2022/12/02 00:35:27;;;;;;;74.33;17.60;;;6.70;99.90;;;;;;5008230;28;20477;-60
2022/12/02 00:37:55;;;;;;;60.73;17.20;;;6.80;99.90;;;;;;5011926;28;20488;-61
2022/12/02 00:40:22;;;;;;;59.17;20.83;;;6.80;99.90;;;;;;5007081;28;20481;-60
2022/12/02 00:42:48;;;;;;;58.37;17.20;;;6.70;99.90;;;;;;5023215;28;21205;-60
2022/12/02 00:48:00;;;;;;;37.27;16.17;;;6.70;99.90;;;;;;5012506;28;20472;-60
2022/12/02 00:50:29;;;;;;;45.30;19.37;;;6.70;99.90;;;;;;5015850;28;20636;-60
2022/12/02 00:52:56;;;;;;;46.93;16.97;;;6.60;99.90;;;;;;5031554;28;20488;-61
2022/12/02 00:55:23;;;;;;;72.33;17.43;;;6.60;99.90;;;;;;5018664;28;20492;-60
2022/12/02 00:57:50;;;;;;;43.60;16.50;;;6.60;99.90;;;;;;5019845;28;20921;-60
2022/12/02 01:00:17;;;;;;;77.77;21.40;;;;;;;;;;5016338;28;20500;-60
2022/12/02 01:02:44;;;;;;;85.60;17.50;;;6.60;99.90;;;;;;5018123;28;20932;-60
2022/12/02 01:05:10;;;;;;;57.83;18.37;;;6.70;99.90;;;;;;5026469;28;21047;-60
2022/12/02 01:07:38;;;;;;;39.53;16.10;;;6.60;99.90;;;;;;5019349;28;21239;-61
2022/12/02 01:10:06;;;;;;;67.63;18.50;;;6.70;99.90;;;;;;5013570;28;20473;-59
2022/12/02 01:12:33;;;;;;;54.53;16.67;;;6.60;99.90;;;;;;5017082;28;20556;-60
2022/12/02 01:15:00;;;;;;;41.00;16.67;;;6.70;99.90;;;;;;5017720;28;20496;-60
2022/12/02 01:17:27;;;;;;;49.23;17.00;;;6.60;99.90;;;;;;5016931;28;20477;-60
2022/12/02 01:19:53;;;;;;;43.53;16.30;;;6.70;99.90;;;;;;5015087;28;20937;-60
2022/12/02 01:22:21;;;;;;;64.67;19.60;;;;;;;;;;5026653;28;20902;-60
2022/12/02 01:24:49;;;;;;;43.10;16.00;;;6.60;99.90;;;;;;5031363;28;20782;-60
2022/12/02 01:27:16;;;;;;;58.93;19.60;;;6.70;99.90;;;;;;5017384;28;20469;-60
2022/12/02 01:29:42;;;;;;;38.53;14.33;;;6.70;99.90;;;;;;5034792;28;20468;-60
2022/12/02 01:32:09;;;;;;;68.60;20.50;;;6.70;99.90;;;;;;5034017;28;20871;-60
2022/12/02 01:34:36;;;;;;;56.70;17.20;;;6.70;99.90;;;;;;5035849;28;20481;-59
2022/12/02 01:37:03;;;;;;;58.87;17.10;;;;;;;;;;5036341;28;20666;-60
2022/12/02 01:39:30;;;;;;;37.10;13.40;;;6.80;99.90;;;;;;5037258;28;20496;-60
2022/12/02 01:41:59;;;;;;;42.00;15.87;;;6.80;99.90;;;;;;5037137;28;20516;-60
2022/12/02 01:44:25;;;;;;;45.23;17.30;;;6.80;99.90;;;;;;5021841;28;20488;-60
2022/12/02 01:46:52;;;;;;;61.57;16.50;;;;;;;;;;5039629;28;20485;-60
2022/12/02 01:49:20;;;;;;;83.57;22.80;;;6.80;99.90;;;;;;5034636;28;20476;-59
2022/12/02 01:51:47;;;;;;;55.83;17.57;;;6.80;99.90;;;;;;5030182;28;20484;-59
2022/12/02 01:54:14;;;;;;;76.23;22.00;;;6.70;99.90;;;;;;5016155;28;21028;-59
2022/12/02 01:56:41;;;;;;;42.97;16.90;;;6.70;99.90;;;;;;5021595;28;20481;-59
2022/12/02 01:59:13;;;;;;;82.00;19.37;;;6.70;99.90;;;;;;5032035;28;20913;-59
2022/12/02 02:01:40;;;;;;;58.80;16.30;;;6.70;99.90;;;;;;5043943;28;20485;-59
2022/12/02 02:04:08;;;;;;;72.43;20.93;;;6.70;99.90;;;;;;5016956;28;20493;-59
2022/12/02 02:06:36;;;;;;;59.07;17.23;;;;;;;;;;5012583;28;20473;-59
2022/12/02 02:09:05;;;;;;;48.67;16.03;;;;;;;;;;5015033;28;21057;-59
2022/12/02 02:11:32;;;;;;;44.10;15.70;;;6.60;99.90;;;;;;5013116;28;20552;-59
2022/12/02 02:14:01;;;;;;;44.63;17.70;;;6.60;99.90;;;;;;5010739;28;20481;-59
2022/12/02 02:16:30;;;;;;;54.60;17.53;;;6.60;99.90;;;;;;5023206;28;21008;-59
2022/12/02 02:18:56;;;;;;;56.17;17.57;;;6.60;99.90;;;;;;5003897;28;20473;-60
2022/12/02 02:21:27;;;;;;;58.30;17.63;;;6.60;99.90;;;;;;5010860;28;20492;-59
2022/12/02 02:23:56;;;;;;;62.87;21.00;;;;;;;;;;5022840;28;20487;-59
2022/12/02 02:26:23;;;;;;;68.63;18.37;;;6.60;99.90;;;;;;5022856;28;20634;-59
2022/12/02 02:28:50;;;;;;;47.10;16.37;;;6.50;99.90;;;;;;5030941;28;20481;-59
2022/12/02 02:31:17;;;;;;;71.10;21.63;;;6.60;99.90;;;;;;5035911;28;20497;-60
2022/12/02 02:33:44;;;;;;;36.60;17.40;;;6.60;99.90;;;;;;5037970;28;20977;-59
2022/12/02 02:36:11;;;;;;;75.43;21.40;;;;;;;;;;5036332;28;20488;-59
2022/12/02 02:38:39;;;;;;;57.33;18.60;;;6.50;99.90;;;;;;5027829;28;21358;-59
2022/12/02 02:41:07;;;;;;;55.27;17.27;;;6.60;99.90;;;;;;5043467;28;20489;-59
2022/12/02 02:43:36;;;;;;;51.50;16.27;;;6.60;99.90;;;;;;5024238;28;20479;-59
2022/12/02 02:46:04;;;;;;;65.07;19.90;;;6.60;99.90;;;;;;5022156;28;20566;-59
2022/12/02 02:48:31;;;;;;;48.97;16.87;;;6.60;99.90;;;;;;5027899;28;20477;-59
2022/12/02 02:50:58;;;;;;;52.00;17.20;;;6.60;99.90;;;;;;5025817;28;21076;-59
2022/12/02 02:53:26;;;;;;;42.00;17.00;;;6.50;99.90;;;;;;5037465;28;20480;-60
2022/12/02 02:55:53;;;;;;;50.70;19.27;;;6.50;99.90;;;;;;5036460;28;20488;-60
2022/12/02 02:58:23;;;;;;;65.60;20.67;;;6.50;99.90;;;;;;5037288;28;20849;-60
2022/12/02 03:00:53;;;;;;;45.60;18.00;;;6.50;99.90;;;;;;5033677;28;20483;-60
2022/12/02 03:03:23;;;;;;;72.57;22.23;;;6.50;99.90;;;;;;5034716;28;20852;-60
2022/12/02 03:05:51;;;;;;;66.20;21.07;;;6.50;99.90;;;;;;5039260;28;20495;-60
2022/12/02 03:08:20;;;;;;;90.93;23.30;;;6.40;99.90;;;;;;5038608;28;20558;-60
2022/12/02 03:10:47;;;;;;;54.00;18.40;;;6.40;99.90;;;;;;5035134;28;20669;-60
2022/12/02 03:13:14;;;;;;;86.50;21.97;;;;;;;;;;5029513;28;20896;-62
2022/12/02 03:15:42;;;;;;;75.03;19.60;;;6.40;99.90;;;;;;5029837;28;20877;-60
2022/12/02 03:18:11;;;;;;;71.63;22.33;;;6.40;99.90;;;;;;5034243;28;20492;-60
2022/12/02 03:20:38;;;;;;;50.43;17.73;;;;;;;;;;5038142;28;21023;-60
2022/12/02 03:23:05;;;;;;;47.23;17.23;;;6.30;99.90;;;;;;5038437;28;21036;-60
2022/12/02 03:25:31;;;;;;;44.93;15.90;;;6.20;99.90;;;;;;5037938;28;20480;-60
2022/12/02 03:27:59;;;;;;;51.40;18.53;;;6.10;99.90;;;;;;5036620;28;20482;-60
2022/12/02 03:30:25;;;;;;;52.57;18.90;;;6.10;99.90;;;;;;5036555;28;20484;-61
2022/12/02 03:32:54;;;;;;;45.20;18.60;;;6.10;99.90;;;;;;5037121;28;20476;-60
2022/12/02 03:35:21;;;;;;;62.03;22.50;;;6.00;99.90;;;;;;5036600;28;20472;-60
2022/12/02 03:37:48;;;;;;;44.37;18.43;;;6.10;99.90;;;;;;5037801;28;20519;-60
2022/12/02 03:40:15;;;;;;;63.23;20.97;;;6.10;99.90;;;;;;5036470;28;20853;-60
2022/12/02 03:42:42;;;;;;;55.17;18.33;;;6.10;99.90;;;;;;5034245;28;20495;-60
2022/12/02 03:45:11;;;;;;;63.70;21.90;;;6.10;99.90;;;;;;5038057;28;20487;-59
2022/12/02 03:47:38;;;;;;;46.70;16.73;;;;;;;;;;5033271;28;20471;-60
2022/12/02 03:50:08;;;;;;;52.53;18.93;;;6.00;99.90;;;;;;5037859;28;21047;-60
2022/12/02 03:52:36;;;;;;;44.20;18.60;;;6.00;99.90;;;;;;5039992;28;20826;-60
2022/12/02 03:55:03;;;;;;;57.27;19.83;;;6.00;99.90;;;;;;5037877;28;20484;-59
2022/12/02 03:57:32;;;;;;;48.80;17.30;;;6.10;99.90;;;;;;5039495;28;20483;-59
2022/12/02 03:59:59;;;;;;;60.90;17.67;;;6.10;99.90;;;;;;5041671;28;20480;-59
2022/12/02 04:02:26;;;;;;;56.70;18.60;;;6.10;99.90;;;;;;5037018;28;20511;-59
2022/12/02 04:04:53;;;;;;;49.70;17.43;;;6.10;99.90;;;;;;5040208;28;20480;-60
2022/12/02 04:07:21;;;;;;;64.97;21.03;;;6.10;99.90;;;;;;5039260;28;20491;-60
2022/12/02 04:09:48;;;;;;;44.27;17.93;;;6.10;99.90;;;;;;5032206;28;20481;-60
2022/12/02 04:12:14;;;;;;;51.13;19.73;;;6.10;99.90;;;;;;5039728;28;20474;-60
2022/12/02 04:14:41;;;;;;;35.53;16.00;;;6.10;99.90;;;;;;5039809;28;20476;-60
2022/12/02 04:17:08;;;;;;;63.00;19.53;;;6.00;99.90;;;;;;5035790;28;20491;-59
2022/12/02 04:19:35;;;;;;;36.20;16.57;;;6.00;99.90;;;;;;5039728;28;20476;-60
2022/12/02 04:22:02;;;;;;;36.97;15.80;;;6.00;99.90;;;;;;5040407;28;20479;-60
2022/12/02 04:24:30;;;;;;;42.57;16.20;;;6.00;99.90;;;;;;5040365;28;20480;-59
2022/12/02 04:26:57;;;;;;;61.53;19.53;;;6.00;99.90;;;;;;5036627;28;20472;-59
2022/12/02 04:29:23;;;;;;;71.00;20.53;;;6.00;99.90;;;;;;5047245;28;20481;-60
2022/12/02 04:31:50;;;;;;;61.50;19.07;;;;;;;;;;5032752;28;20932;-60
2022/12/02 04:34:18;;;;;;;79.83;22.07;;;;;;;;;;5034902;28;20624;-60
2022/12/02 04:36:44;;;;;;;76.53;20.27;;;6.10;99.90;;;;;;5034863;28;20480;-60
2022/12/02 04:39:11;;;;;;;67.33;18.53;;;6.00;99.90;;;;;;5036944;28;20598;-60
2022/12/02 04:41:39;;;;;;;52.70;20.17;;;6.00;99.90;;;;;;5038995;28;20510;-60
2022/12/02 04:44:06;;;;;;;80.03;21.77;;;6.00;99.90;;;;;;5040189;28;20489;-60
2022/12/02 04:46:33;;;;;;;62.43;19.23;;;;;;;;;;5038566;28;20487;-59
2022/12/02 04:49:00;;;;;;;55.30;18.13;;;;;;;;;;5034798;28;20476;-59
2022/12/02 04:51:27;;;;;;;86.20;21.90;;;;;;;;;;5037927;28;20484;-60
2022/12/02 04:53:54;;;;;;;59.23;19.57;;;6.20;99.90;;;;;;5038750;28;20480;-60
2022/12/02 04:56:21;;;;;;;75.47;22.30;;;6.20;99.90;;;;;;5037920;28;20480;-60
2022/12/02 04:58:49;;;;;;;70.87;22.20;;;6.30;99.90;;;;;;5040270;28;20503;-60
2022/12/02 05:01:16;;;;;;;98.27;25.53;;;;;;;;;;5038361;28;20855;-59
2022/12/02 05:03:43;;;;;;;73.70;20.30;;;6.30;99.90;;;;;;5034643;28;21392;-59
2022/12/02 05:06:09;;;;;;;71.90;24.33;;;6.30;99.90;;;;;;5021365;28;20500;-60
2022/12/02 05:08:36;;;;;;;55.20;20.60;;;6.30;99.90;;;;;;5024008;28;21189;-59
2022/12/02 05:11:03;;;;;;;79.43;22.07;;;;;;;;;;5017888;28;20486;-59
2022/12/02 05:13:30;;;;;;;57.80;19.40;;;6.30;99.90;;;;;;5018820;28;20489;-59
2022/12/02 05:15:58;;;;;;;57.73;20.80;;;6.30;99.90;;;;;;5029144;28;20487;-60
2022/12/02 05:18:25;;;;;;;52.53;19.47;;;6.30;99.90;;;;;;5031854;28;20484;-59
2022/12/02 05:20:51;;;;;;;54.07;19.23;;;6.20;99.90;;;;;;5036413;28;20503;-59
2022/12/02 05:23:18;;;;;;;56.27;20.47;;;6.20;99.90;;;;;;5035734;28;20487;-59
2022/12/02 05:25:45;;;;;;;56.17;21.70;;;6.20;99.90;;;;;;5029791;28;20677;-59
2022/12/02 05:28:12;;;;;;;70.30;22.57;;;6.20;99.90;;;;;;5025072;28;20571;-60
2022/12/02 05:30:39;;;;;;;61.60;18.60;;;6.20;99.90;;;;;;5014744;28;20583;-60
2022/12/02 05:33:07;;;;;;;58.10;22.47;;;6.20;99.90;;;;;;5015905;28;20477;-60
2022/12/02 05:35:34;;;;;;;76.37;23.70;;;6.20;99.90;;;;;;5033308;28;20516;-59
2022/12/02 05:38:00;;;;;;;357.13;106.07;;;6.30;99.90;;;;;;5022748;28;20477;-59
2022/12/02 05:40:27;;;;;;;69.07;25.83;;;6.30;99.90;;;;;;5031918;28;20480;-60
2022/12/02 05:42:54;;;;;;;62.63;21.60;;;6.30;99.90;;;;;;5034983;28;20503;-59
2022/12/02 05:45:22;;;;;;;67.37;21.70;;;;;;;;;;5034270;28;20480;-59
2022/12/02 05:47:52;;;;;;;67.13;22.30;;;6.10;99.90;;;;;;5036076;28;20495;-59
2022/12/02 05:50:21;;;;;;;72.83;23.30;;;6.20;99.90;;;;;;5036378;28;20489;-60
2022/12/02 05:52:49;;;;;;;48.93;18.80;;;6.20;99.90;;;;;;5035959;28;20495;-60
2022/12/02 05:55:19;;;;;;;70.17;21.60;;;6.20;99.90;;;;;;5037753;28;20496;-60
2022/12/02 05:57:46;;;;;;;49.73;18.47;;;6.20;99.90;;;;;;5036443;28;20492;-60
2022/12/02 06:00:16;;;;;;;54.47;18.00;;;6.20;99.90;;;;;;5037313;28;20483;-60
2022/12/02 06:02:46;;;;;;;49.53;20.30;;;6.30;99.90;;;;;;5034530;28;20570;-60
2022/12/02 06:05:21;;;;;;;89.90;21.37;;;;;;;;;;5035063;28;20844;-60
2022/12/02 06:07:51;;;;;;;65.10;21.47;;;6.30;99.90;;;;;;5028358;28;20468;-59
2022/12/02 06:10:27;;;;;;;65.97;23.07;;;6.30;99.90;;;;;;5034901;28;20488;-60
2022/12/02 06:12:57;;;;;;;48.57;19.70;;;9.00;99.90;;;;;;5028796;28;20777;-59
2022/12/02 06:15:24;;;;;;;64.47;22.00;;;6.30;99.90;;;;;;5013980;28;21041;-60
2022/12/02 06:17:52;;;;;;;54.73;19.00;;;6.40;99.90;;;;;;5029729;28;20492;-60
2022/12/02 06:20:26;;;;;;;89.27;23.43;;;6.50;99.90;;;;;;5027972;28;21072;-59
2022/12/02 06:22:57;;;;;;;69.00;20.97;;;6.50;99.90;;;;;;5034438;28;20568;-60
2022/12/02 06:25:26;;;;;;;76.63;23.00;;;6.50;99.90;;;;;;5034228;28;20489;-60
2022/12/02 06:27:55;;;;;;;89.93;23.60;;;6.50;99.90;;;;;;5033948;28;20483;-60
2022/12/02 06:30:22;;;;;;;77.67;23.70;;;6.50;99.90;;;;;;5032570;28;20644;-60
2022/12/02 06:32:54;;;;;;;59.53;20.00;;;6.50;99.90;;;;;;5039018;28;20487;-60
2022/12/02 06:35:26;;;;;;;91.30;25.53;;;6.50;99.90;;;;;;5037779;28;20915;-60
2022/12/02 06:37:55;;;;;;;85.60;20.20;;;6.50;99.90;;;;;;5036813;28;20485;-60
2022/12/02 06:40:24;;;;;;;90.87;22.23;;;;;;;;;;5039667;28;20476;-60
2022/12/02 06:42:51;;;;;;;70.47;20.23;;;6.50;99.90;;;;;;5039182;28;20479;-60
2022/12/02 06:45:23;;;;;;;95.03;23.53;;;6.50;99.90;;;;;;5027816;28;20484;-61
2022/12/02 06:47:51;;;;;;;75.37;21.30;;;;;;;;;;5026670;28;21001;-60
2022/12/02 06:50:32;;;;;;;81.60;25.17;;;6.40;99.90;;;;;;5022547;28;20515;-60
2022/12/02 06:53:12;;;;;;;64.13;20.20;;;6.40;99.90;;;;;;5028603;28;20564;-61
2022/12/02 06:55:39;;;;;;;73.90;20.13;;;6.40;99.90;;;;;;5014478;28;21116;-60
2022/12/02 06:58:23;;;;;;;65.97;22.07;;;6.40;99.90;;;;;;5021218;28;20906;-60
2022/12/02 07:00:50;;;;;;;64.07;21.17;;;6.50;99.90;;;;;;5027612;28;20490;-60
2022/12/02 07:03:25;;;;;;;75.53;26.43;;;;;;;;;;5020366;28;21075;-61
2022/12/02 07:05:56;;;;;;;76.53;23.10;;;;;;;;;;5036295;28;21888;-60
2022/12/02 07:08:25;;;;;;;82.83;27.47;;;6.30;99.90;;;;;;5035118;28;20490;-60
2022/12/02 07:10:51;;;;;;;51.20;20.67;;;6.30;99.90;;;;;;5039480;28;20496;-60
2022/12/02 07:13:20;;;;;;;99.83;24.13;;;6.30;99.90;;;;;;5036461;28;21152;-61
2022/12/02 07:15:47;;;;;;;60.87;21.90;;;6.20;99.90;;;;;;5036322;28;20491;-60
2022/12/02 07:18:17;;;;;;;78.50;24.10;;;6.20;99.90;;;;;;5038101;28;20484;-60
2022/12/02 07:20:46;;;;;;;72.67;19.50;;;6.20;99.90;;;;;;5038756;28;21028;-61
2022/12/02 07:23:19;;;;;;;79.83;25.70;;;6.20;99.90;;;;;;5037855;28;20468;-60
2022/12/02 07:25:47;;;;;;;65.07;22.03;;;6.20;99.90;;;;;;5031077;28;20512;-61
2022/12/02 07:28:25;;;;;;;94.67;27.50;;;6.10;99.90;;;;;;5018996;28;20496;-60
2022/12/02 07:30:56;;;;;;;71.17;23.03;;;;;;;;;;5018902;28;21015;-60
2022/12/02 07:33:24;;;;;;;83.80;22.60;;;;;;;;;;5019122;28;20836;-61
2022/12/02 07:35:50;;;;;;;92.53;26.23;;;6.20;99.90;;;;;;5018329;28;20488;-61
2022/12/02 07:38:18;;;;;;;94.30;27.37;;;6.10;99.90;;;;;;5028416;28;20517;-60
2022/12/02 07:40:45;;;;;;;85.37;24.33;;;6.20;99.90;;;;;;5040135;28;20492;-60
2022/12/02 07:43:12;;;;;;;107.83;24.20;;;6.20;99.90;;;;;;5039955;28;20530;-60
2022/12/02 07:45:39;;;;;;;75.63;22.40;;;;;;;;;;5038222;28;20592;-60
2022/12/02 07:48:06;;;;;;;102.23;24.97;;;6.30;99.90;;;;;;5035821;28;20522;-61
2022/12/02 07:50:33;;;;;;;73.30;20.37;;;6.30;99.90;;;;;;5035133;28;20729;-60
2022/12/02 07:53:03;;;;;;;74.13;21.40;;;6.20;99.90;;;;;;5038591;28;20472;-60
2022/12/02 07:55:31;;;;;;;78.80;23.37;;;6.30;99.90;;;;;;5030649;28;20516;-60
2022/12/02 07:57:58;;;;;;;79.43;24.17;;;6.30;99.90;;;;;;5051019;28;20475;-60
2022/12/02 08:00:25;;;;;;;67.37;20.80;;;6.30;99.90;;;;;;5038369;28;21008;-60
2022/12/02 08:02:54;;;;;;;70.37;20.50;;;6.30;99.90;;;;;;5037879;28;20575;-60
2022/12/02 08:05:21;;;;;;;84.67;25.13;;;6.20;99.90;;;;;;5034710;28;20587;-60
2022/12/02 08:07:48;;;;;;;78.93;24.23;;;6.30;99.90;;;;;;5036256;28;21027;-61
2022/12/02 08:10:15;;;;;;;96.20;25.90;;;6.20;99.90;;;;;;5035796;28;21184;-59
2022/12/02 08:12:43;;;;;;;62.97;17.30;;;;;;;;;;5038143;28;20488;-60
2022/12/02 08:15:12;;;;;;;76.93;22.77;;;5.50;99.90;;;;;;5034366;28;21000;-60
2022/12/02 08:17:39;;;;;;;75.17;21.90;;;;;;;;;;5036241;28;20491;-60
2022/12/02 08:20:09;;;;;;;85.10;21.70;;;6.00;99.90;;;;;;5027115;28;20475;-59
2022/12/02 08:22:36;;;;;;;82.17;23.00;;;;;;;;;;5019920;28;20461;-60
2022/12/02 08:25:03;;;;;;;87.60;23.80;;;;;;;;;;5022972;28;20495;-60
2022/12/02 08:27:30;;;;;;;83.57;23.03;;;6.10;99.90;;;;;;5036074;28;20500;-60
2022/12/02 08:29:58;;;;;;;70.57;22.83;;;6.10;99.90;;;;;;5035720;28;20553;-60
2022/12/02 08:32:25;;;;;;;93.83;30.43;;;6.10;99.90;;;;;;4979677;28;21023;-61
2022/12/02 08:34:51;;;;;;;84.50;24.77;;;6.10;99.90;;;;;;5030178;28;20492;-60
2022/12/02 08:37:18;;;;;;;95.80;24.73;;;;;;;;;;5028209;28;22104;-60
2022/12/02 08:39:45;;;;;;;85.17;25.60;;;;;;;;;;5030294;28;20484;-60
2022/12/02 08:42:12;;;;;;;118.53;32.63;;;6.20;99.90;;;;;;5034906;28;21023;-60
2022/12/02 08:44:39;;;;;;;92.37;24.10;;;6.20;99.90;;;;;;5006587;28;20474;-60
2022/12/02 08:47:07;;;;;;;98.37;27.27;;;6.20;99.90;;;;;;5015428;28;20504;-61
2022/12/02 08:49:34;;;;;;;102.43;28.67;;;6.30;99.90;;;;;;5015449;28;20898;-60
2022/12/02 08:52:00;;;;;;;81.33;25.27;;;6.30;99.90;;;;;;5014132;28;21024;-60
2022/12/02 08:54:27;;;;;;;72.47;20.47;;;;;;;;;;5009690;28;20470;-60
2022/12/02 08:56:59;;;;;;;92.87;25.20;;;6.30;99.90;;;;;;5009274;28;20717;-60
2022/12/02 08:59:29;;;;;;;87.50;22.10;;;5.50;99.90;;;;;;5007046;28;20867;-60
2022/12/02 09:01:59;;;;;;;92.67;25.30;;;6.30;99.90;;;;;;5002138;28;20536;-60
2022/12/02 09:04:27;;;;;;;74.27;19.67;;;;;;;;;;5002194;28;20503;-60
2022/12/02 09:06:54;;;;;;;89.00;21.87;;;6.20;99.90;;;;;;5004071;28;20469;-60
2022/12/02 09:09:21;;;;;;;106.33;28.03;;;6.20;99.90;;;;;;5020999;28;20480;-60
2022/12/02 09:11:48;;;;;;;95.70;26.70;;;6.30;99.90;;;;;;5008426;28;20884;-60
2022/12/02 09:14:14;;;;;;;118.83;30.83;;;6.40;99.90;;;;;;5008410;28;21031;-60
2022/12/02 09:16:41;;;;;;;71.57;22.97;;;6.30;99.90;;;;;;5009559;28;20484;-60
2022/12/02 09:19:11;;;;;;;119.77;27.17;;;;;;;;;;5009687;28;21251;-60
2022/12/02 09:21:43;;;;;;;80.87;23.67;;;;;;;;;;4994275;28;20486;-60
2022/12/02 09:24:10;;;;;;;149.80;30.93;;;;;;;;;;5003998;28;20550;-60
2022/12/02 09:26:37;;;;;;;98.30;24.97;;;6.30;99.90;;;;;;5017682;28;20489;-60
2022/12/02 09:29:04;;;;;;;86.33;23.37;;;;;;;;;;5008389;28;20484;-60
2022/12/02 09:31:31;;;;;;;72.63;24.13;;;;;;;;;;5006482;28;20481;-60
2022/12/02 09:33:58;;;;;;;72.43;21.67;;;;;;;;;;5003028;28;20834;-60
2022/12/02 09:36:24;;;;;;;59.83;19.67;;;6.20;99.90;;;;;;5007292;28;20512;-60
2022/12/02 09:38:52;;;;;;;60.10;21.47;;;6.20;99.90;;;;;;5007281;28;20473;-60
2022/12/02 09:41:20;;;;;;;100.90;28.40;;;;;;;;;;5005594;28;20481;-59
2022/12/02 09:43:47;;;;;;;86.83;25.20;;;;;;;;;;5004738;28;20492;-60
2022/12/02 09:46:13;;;;;;;114.30;31.83;;;6.20;99.90;;;;;;5003186;28;20488;-60
2022/12/02 09:48:40;;;;;;;78.23;26.77;;;6.30;99.90;;;;;;4969902;28;20476;-60
2022/12/02 09:51:09;;;;;;;94.53;28.53;;;6.30;99.90;;;;;;4998452;28;20484;-60
2022/12/02 09:53:39;;;;;;;68.73;23.67;;;6.20;99.90;;;;;;5002999;28;20916;-60
2022/12/02 09:56:13;;;;;;;87.83;22.93;;;6.30;99.90;;;;;;5016401;28;20485;-60
2022/12/02 09:58:40;;;;;;;102.77;28.27;;;6.20;99.90;;;;;;5013340;28;20916;-60
2022/12/02 10:01:09;;;;;;;101.20;28.67;;;;;;;;;;5020819;28;20476;-60
2022/12/02 10:03:37;;;;;;;87.23;23.57;;;;;;;;;;5013576;28;20487;-60
2022/12/02 10:06:07;;;;;;;86.13;23.60;;;6.20;99.90;;;;;;5011146;28;20484;-60
2022/12/02 10:08:35;;;;;;;88.97;23.70;;;;;;;;;;5009053;28;20475;-60
2022/12/02 10:11:01;;;;;;;79.43;24.10;;;6.20;99.90;;;;;;5030815;28;20816;-60
2022/12/02 10:13:33;;;;;;;83.90;24.77;;;6.20;99.90;;;;;;5007174;28;20519;-59
2022/12/02 10:16:01;;;;;;;84.90;25.87;;;6.30;99.90;;;;;;5026153;28;20814;-60
2022/12/02 10:18:31;;;;;;;103.10;24.97;;;6.30;99.90;;;;;;5027232;28;20484;-60
2022/12/02 10:20:58;;;;;;;74.80;26.53;;;6.30;99.90;;;;;;5025445;28;20517;-59
2022/12/02 10:23:25;;;;;;;86.40;24.17;;;;;;;;;;5029282;28;21137;-59
2022/12/02 10:25:57;;;;;;;87.27;28.37;;;6.30;99.90;;;;;;5030421;28;20507;-59
2022/12/02 10:28:27;;;;;;;80.27;23.27;;;6.40;99.90;;;;;;5030245;28;20569;-60
2022/12/02 10:31:00;;;;;;;101.43;27.50;;;6.40;99.90;;;;;;5030563;28;20527;-59
2022/12/02 10:33:29;;;;;;;95.03;24.90;;;6.30;99.90;;;;;;5030020;28;20553;-59
2022/12/02 10:35:56;;;;;;;100.47;24.50;;;6.30;99.90;;;;;;5030293;28;20519;-59
2022/12/02 10:38:41;;;;;;;120.33;28.00;;;6.40;99.90;;;;;;5028425;28;20485;-59
2022/12/02 10:41:21;;;;;;;109.97;28.47;;;6.40;99.90;;;;;;5033136;28;20470;-59
2022/12/02 10:44:04;;;;;;;109.10;24.90;;;6.40;99.90;;;;;;5021284;28;20496;-59
2022/12/02 10:46:33;;;;;;;97.43;24.50;;;6.50;99.90;;;;;;5021743;28;20487;-60
2022/12/02 10:49:28;;;;;;;81.43;25.40;;;6.50;99.90;;;;;;5011835;28;20481;-59
2022/12/02 10:51:58;;;;;;;94.60;25.00;;;6.40;99.90;;;;;;5031495;28;20495;-59
2022/12/02 10:54:27;;;;;;;76.13;25.70;;;;;;;;;;5013568;28;20528;-59
2022/12/02 10:56:55;;;;;;;78.77;25.97;;;6.60;99.90;;;;;;5016992;28;20977;-60
2022/12/02 10:59:22;;;;;;;99.37;27.97;;;9.00;99.90;;;;;;5024534;28;20481;-59
2022/12/02 11:01:51;;;;;;;102.17;27.90;;;6.70;99.90;;;;;;5010083;28;20489;-59
2022/12/02 11:04:18;;;;;;;99.27;27.90;;;6.60;99.90;;;;;;5009944;28;20476;-59
2022/12/02 11:06:46;;;;;;;93.47;26.40;;;6.70;99.90;;;;;;5009599;28;20481;-59
2022/12/02 11:09:16;;;;;;;121.80;30.63;;;6.70;99.90;;;;;;5009682;28;20551;-60
2022/12/02 11:11:44;;;;;;;88.17;23.57;;;;;;;;;;5009862;28;20484;-60
2022/12/02 11:14:12;;;;;;;130.13;31.07;;;6.70;99.90;;;;;;5012710;28;20481;-60
2022/12/02 11:16:45;;;;;;;95.87;26.27;;;6.70;99.90;;;;;;5010062;28;20484;-60
2022/12/02 11:19:44;;;;;;;116.63;28.57;;;6.70;99.90;;;;;;5018849;28;20483;-60
2022/12/02 11:22:29;;;;;;;85.10;24.67;;;;;;;;;;4989370;28;20837;-61
2022/12/02 11:24:57;;;;;;;67.93;19.00;;;;;;;;;;4999789;28;20477;-60
2022/12/02 11:27:23;;;;;;;88.70;21.93;;;6.60;99.90;;;;;;5047791;28;20476;-60
2022/12/02 11:30:23;;;;;;;74.80;22.77;;;6.50;99.90;;;;;;5013892;28;20493;-60
2022/12/02 11:32:50;;;;;;;69.53;19.40;;;6.50;99.90;;;;;;4999421;28;20484;-60
2022/12/02 11:35:56;;;;;;;112.50;26.40;;;6.60;99.90;;;;;;5013321;28;20516;-60
2022/12/02 11:38:25;;;;;;;104.70;20.43;;;6.50;99.90;;;;;;5008236;28;20480;-60
2022/12/02 11:41:01;;;;;;;105.13;20.37;;;6.50;99.90;;;;;;5014595;28;20477;-61
2022/12/02 11:44:06;;;;;;;114.03;23.57;;;6.50;99.90;;;;;;5012122;28;20697;-60
2022/12/02 11:46:42;;;;;;;85.33;22.47;;;6.50;99.90;;;;;;5020950;28;20837;-60
2022/12/02 11:49:23;;;;;;;91.03;21.87;;;;;;;;;;5016775;28;20845;-60
2022/12/02 11:51:51;;;;;;;63.63;18.47;;;6.30;99.90;;;;;;5014061;28;21528;-60
2022/12/02 11:54:19;;;;;;;101.67;21.90;;;;;;;;;;5011694;28;20838;-60
2022/12/02 11:56:47;;;;;;;92.03;18.07;;;;;;;;;;5027665;28;20875;-60
2022/12/02 11:59:23;;;;;;;162.70;23.70;;;6.40;99.90;;;;;;5013059;28;20540;-60
2022/12/02 12:01:50;;;;;;;109.77;19.97;;;;;;;;;;5011766;28;20470;-60
2022/12/02 12:04:24;;;;;;;164.43;24.17;;;6.50;99.90;;;;;;5027278;28;20478;-60
2022/12/02 12:06:56;;;;;;;117.10;19.03;;;;;;;;;;5033414;28;20542;-60
2022/12/02 12:09:23;;;;;;;118.03;18.30;;;;;;;;;;5034583;28;20475;-60
2022/12/02 12:12:09;;;;;;;108.93;20.60;;;6.40;99.90;;;;;;5017020;28;20512;-60
2022/12/02 12:14:51;;;;;;;113.13;22.00;;;;;;;;;;5011117;28;20481;-60
2022/12/02 12:17:31;;;;;;;87.13;19.67;;;6.40;99.90;;;;;;5013093;28;20904;-61
2022/12/02 12:19:58;;;;;;;56.83;16.37;;;;;;;;;;5003196;28;20931;-61
2022/12/02 12:22:27;;;;;;;63.90;15.17;;;6.60;99.90;;;;;;5013751;28;20484;-60
2022/12/02 12:24:54;;;;;;;59.30;15.50;;;6.60;99.90;;;;;;5013241;28;20557;-60
2022/12/02 12:27:35;;;;;;;98.57;19.63;;;6.60;99.90;;;;;;5011270;28;20750;-61
2022/12/02 12:30:04;;;;;;;88.57;14.50;;;;;;;;;;5005482;28;20970;-60
2022/12/02 12:32:31;;;;;;;89.57;15.33;;;;;;;;;;5010953;28;20857;-61
2022/12/02 12:34:59;;;;;;;71.90;14.53;;;;;;;;;;5011718;28;20823;-60
2022/12/02 12:37:27;;;;;;;97.60;16.23;;;6.60;99.90;;;;;;5008729;28;20485;-61
2022/12/02 12:39:54;;;;;;;72.17;14.97;;;;;;;;;;5010434;28;20487;-61
2022/12/02 12:42:21;;;;;;;99.47;18.77;;;;;;;;;;5035597;28;20473;-60
2022/12/02 12:44:48;;;;;;;48.77;10.97;;;;;;;;;;5016119;28;20496;-60
2022/12/02 12:47:14;;;;;;;93.83;17.37;;;6.40;99.90;;;;;;5019882;28;20541;-61
2022/12/02 12:49:41;;;;;;;51.67;13.07;;;;;;;;;;5009217;28;20852;-60
2022/12/02 12:52:09;;;;;;;73.63;15.30;;;;;;;;;;5012144;28;20546;-60
2022/12/02 12:54:37;;;;;;;58.73;12.63;;;6.20;99.90;;;;;;5016156;28;20490;-60
2022/12/02 12:57:03;;;;;;;58.37;13.77;;;6.30;99.90;;;;;;5015555;28;20477;-60
2022/12/02 12:59:30;;;;;;;55.87;13.47;;;6.30;99.90;;;;;;5018888;28;20486;-60
2022/12/02 13:01:57;;;;;;;66.70;14.17;;;6.30;99.90;;;;;;5022757;28;20475;-61
2022/12/02 13:04:24;;;;;;;62.90;13.53;;;;;;;;;;5014536;28;20744;-61
2022/12/02 13:06:51;;;;;;;48.20;13.17;;;6.40;99.90;;;;;;5010452;28;20806;-61